sensor_id;sensor_type;location;lat;lon;timestamp;pressure;altitude;pressure_sealevel;temperature;humidity
22775;BME280;11554;51.106;3.684;2022-10-16T00:00:00;100933.7;;;12.41;100.0
22775;BME280;11554;51.106;3.684;2022-10-16T00:05:00;100930.11;;;12.33;100.0
22775;BME280;11554;51.106;3.684;2022-10-16T00:10:00;100933.09000000001;;;12.27;100.0
22775;BME280;11554;51.106;3.684;2022-10-16T00:15:00;100932.65;;;12.17;100.0
22775;BME280;11554;51.106;3.684;2022-10-16T00:20:00;100945.29;;;12.12;100.0
22775;BME280;11554;51.106;3.684;2022-10-16T00:25:00;100954.45999999999;;;12.04;100.0
22775;BME280;11554;51.106;3.684;2022-10-16T00:30:00;100949.94;;;11.95;100.0
22775;BME280;11554;51.106;3.684;2022-10-16T00:35:00;100946.6;;;11.89;100.0
22775;BME280;11554;51.106;3.684;2022-10-16T00:40:00;100947.08;;;11.79;100.0
22775;BME280;11554;51.106;3.684;2022-10-16T00:45:00;100944.12;;;11.64;100.0
22775;BME280;11554;51.106;3.684;2022-10-16T00:50:02;100946.57999999999;;;11.52;100.0
22775;BME280;11554;51.106;3.684;2022-10-16T00:55:00;100948.24;;;11.43;100.0
22775;BME280;11554;51.106;3.684;2022-10-16T01:00:00;100952.04;;;11.45;100.0
22775;BME280;11554;51.106;3.684;2022-10-16T01:05:00;100948.53;;;11.48;100.0
22775;BME280;11554;51.106;3.684;2022-10-16T01:10:03;100954.98999999999;;;11.47;100.0
22775;BME280;11554;51.106;3.684;2022-10-16T01:15:01;100940.08;;;11.50;100.0
22775;BME280;11554;51.106;3.684;2022-10-16T01:20:02;100947.6;;;11.50;100.0
22775;BME280;11554;51.106;3.684;2022-10-16T01:25:00;100955.55;;;11.47;100.0
22775;BME280;11554;51.106;3.684;2022-10-16T01:30:01;100949.72;;;11.50;100.0
22775;BME280;11554;51.106;3.684;2022-10-16T01:35:02;100956.18;;;11.43;100.0
22775;BME280;11554;51.106;3.684;2022-10-16T01:40:00;100952.4;;;11.44;100.0
22775;BME280;11554;51.106;3.684;2022-10-16T01:45:00;100937.05;;;11.43;100.0
22775;BME280;11554;51.106;3.684;2022-10-16T01:50:00;100935.42;;;11.41;100.0
22775;BME280;11554;51.106;3.684;2022-10-16T01:55:00;100933.7;;;11.42;100.0
22775;BME280;11554;51.106;3.684;2022-10-16T02:00:01;100939.77;;;11.40;100.0
22775;BME280;11554;51.106;3.684;2022-10-16T02:05:02;100953.31;;;11.42;100.0
22775;BME280;11554;51.106;3.684;2022-10-16T02:10:00;100949.95;;;11.45;100.0
22775;BME280;11554;51.106;3.684;2022-10-16T02:15:00;100948.35;;;11.47;100.0
22775;BME280;11554;51.106;3.684;2022-10-16T02:20:00;100941.41;;;11.45;100.0
22775;BME280;11554;51.106;3.684;2022-10-16T02:25:01;100944.48;;;11.40;100.0
22775;BME280;11554;51.106;3.684;2022-10-16T02:30:02;100951.62;;;11.39;100.0
22775;BME280;11554;51.106;3.684;2022-10-16T02:35:00;100956.33;;;11.39;100.0
22775;BME280;11554;51.106;3.684;2022-10-16T02:40:00;100962.59;;;11.36;100.0
22775;BME280;11554;51.106;3.684;2022-10-16T02:45:00;100983.47;;;11.35;100.0
22775;BME280;11554;51.106;3.684;2022-10-16T02:50:00;100993.34;;;11.35;100.0
22775;BME280;11554;51.106;3.684;2022-10-16T02:55:00;101000.94;;;11.34;100.0
22775;BME280;11554;51.106;3.684;2022-10-16T03:00:00;100998.63;;;11.28;100.0
22775;BME280;11554;51.106;3.684;2022-10-16T03:05:00;100995.94;;;11.25;100.0
22775;BME280;11554;51.106;3.684;2022-10-16T03:10:00;101005.33;;;11.28;100.0
22775;BME280;11554;51.106;3.684;2022-10-16T03:15:00;101007.84;;;11.28;100.0
22775;BME280;11554;51.106;3.684;2022-10-16T03:20:00;101005.62999999999;;;11.19;100.0
22775;BME280;11554;51.106;3.684;2022-10-16T03:25:00;101015.69;;;11.20;100.0
22775;BME280;11554;51.106;3.684;2022-10-16T03:30:00;101014.38;;;11.20;100.0
22775;BME280;11554;51.106;3.684;2022-10-16T03:35:00;101016.95999999999;;;11.23;100.0
22775;BME280;11554;51.106;3.684;2022-10-16T03:40:00;101026.56;;;11.18;100.0
22775;BME280;11554;51.106;3.684;2022-10-16T03:45:00;101029.74;;;11.14;100.0
22775;BME280;11554;51.106;3.684;2022-10-16T03:50:00;101028.3;;;11.11;100.0
22775;BME280;11554;51.106;3.684;2022-10-16T03:55:00;101023.91;;;11.09;100.0
22775;BME280;11554;51.106;3.684;2022-10-16T04:00:00;101028.85;;;11.06;100.0
22775;BME280;11554;51.106;3.684;2022-10-16T04:05:00;101036.3;;;11.00;100.0
22775;BME280;11554;51.106;3.684;2022-10-16T04:10:00;101040.0;;;10.99;100.0
22775;BME280;11554;51.106;3.684;2022-10-16T04:15:00;101046.15;;;11.01;100.0
22775;BME280;11554;51.106;3.684;2022-10-16T04:20:00;101045.87;;;10.96;100.0
22775;BME280;11554;51.106;3.684;2022-10-16T04:25:00;101054.11;;;10.96;100.0
22775;BME280;11554;51.106;3.684;2022-10-16T04:30:00;101063.53;;;10.96;100.0
22775;BME280;11554;51.106;3.684;2022-10-16T04:35:00;101064.57;;;10.99;100.0
22775;BME280;11554;51.106;3.684;2022-10-16T04:40:00;101070.20999999999;;;11.01;100.0
22775;BME280;11554;51.106;3.684;2022-10-16T04:45:00;101073.77;;;11.01;100.0
22775;BME280;11554;51.106;3.684;2022-10-16T04:50:00;101086.47;;;11.03;100.0
22775;BME280;11554;51.106;3.684;2022-10-16T04:55:00;101091.56;;;11.06;100.0
22775;BME280;11554;51.106;3.684;2022-10-16T05:00:00;101095.83;;;11.05;100.0
22775;BME280;11554;51.106;3.684;2022-10-16T05:05:00;101098.78;;;11.00;100.0
22775;BME280;11554;51.106;3.684;2022-10-16T05:10:00;101112.32;;;11.06;100.0
22775;BME280;11554;51.106;3.684;2022-10-16T05:15:00;101115.15000000001;;;11.15;100.0
22775;BME280;11554;51.106;3.684;2022-10-16T05:20:00;101124.95999999999;;;11.21;100.0
22775;BME280;11554;51.106;3.684;2022-10-16T05:25:00;101134.64;;;11.29;100.0
22775;BME280;11554;51.106;3.684;2022-10-16T05:30:00;101140.75;;;11.36;100.0
22775;BME280;11554;51.106;3.684;2022-10-16T05:35:00;101149.78;;;11.38;100.0
22775;BME280;11554;51.106;3.684;2022-10-16T05:40:00;101159.59;;;11.42;100.0
22775;BME280;11554;51.106;3.684;2022-10-16T05:45:00;101170.15;;;11.38;100.0
22775;BME280;11554;51.106;3.684;2022-10-16T05:50:00;101166.25;;;11.29;100.0
22775;BME280;11554;51.106;3.684;2022-10-16T05:55:00;101174.22;;;11.23;100.0
22775;BME280;11554;51.106;3.684;2022-10-16T06:00:00;101174.08;;;11.16;100.0
22775;BME280;11554;51.106;3.684;2022-10-16T06:05:00;101187.83;;;11.10;100.0
22775;BME280;11554;51.106;3.684;2022-10-16T06:10:00;101187.01999999999;;;11.08;100.0
22775;BME280;11554;51.106;3.684;2022-10-16T06:15:00;101200.0;;;11.05;100.0
22775;BME280;11554;51.106;3.684;2022-10-16T06:20:00;101210.99;;;11.09;100.0
22775;BME280;11554;51.106;3.684;2022-10-16T06:25:00;101209.79999999999;;;11.14;100.0
22775;BME280;11554;51.106;3.684;2022-10-16T06:30:00;101217.62999999999;;;11.20;100.0
22775;BME280;11554;51.106;3.684;2022-10-16T06:35:00;101220.58;;;11.24;100.0
22775;BME280;11554;51.106;3.684;2022-10-16T06:40:00;101225.19;;;11.35;100.0
22775;BME280;11554;51.106;3.684;2022-10-16T06:45:00;101225.11;;;11.40;100.0
22775;BME280;11554;51.106;3.684;2022-10-16T06:50:00;101234.01;;;11.44;100.0
22775;BME280;11554;51.106;3.684;2022-10-16T06:55:00;101244.25;;;11.51;100.0
22775;BME280;11554;51.106;3.684;2022-10-16T07:00:00;101249.55;;;11.62;100.0
22775;BME280;11554;51.106;3.684;2022-10-16T07:05:00;101257.11;;;11.72;100.0
22775;BME280;11554;51.106;3.684;2022-10-16T07:10:00;101279.16;;;11.87;100.0
22775;BME280;11554;51.106;3.684;2022-10-16T07:15:00;101281.34;;;12.00;100.0
22775;BME280;11554;51.106;3.684;2022-10-16T07:20:00;101289.81;;;12.14;100.0
22775;BME280;11554;51.106;3.684;2022-10-16T07:25:00;101295.28;;;12.23;100.0
22775;BME280;11554;51.106;3.684;2022-10-16T07:30:00;101308.5;;;12.30;100.0
22775;BME280;11554;51.106;3.684;2022-10-16T07:35:00;101325.95;;;12.43;100.0
22775;BME280;11554;51.106;3.684;2022-10-16T07:40:00;101333.04000000001;;;12.55;100.0
22775;BME280;11554;51.106;3.684;2022-10-16T07:45:00;101337.92;;;12.67;100.0
22775;BME280;11554;51.106;3.684;2022-10-16T07:50:00;101346.34;;;12.78;100.0
22775;BME280;11554;51.106;3.684;2022-10-16T07:55:00;101358.01;;;12.96;100.0
22775;BME280;11554;51.106;3.684;2022-10-16T08:00:00;101364.87;;;13.17;100.0
22775;BME280;11554;51.106;3.684;2022-10-16T08:05:00;101370.39;;;13.35;100.0
22775;BME280;11554;51.106;3.684;2022-10-16T08:10:00;101377.14;;;13.62;100.0
22775;BME280;11554;51.106;3.684;2022-10-16T08:15:00;101371.22;;;13.83;100.0
22775;BME280;11554;51.106;3.684;2022-10-16T08:20:00;101374.22;;;14.10;100.0
22775;BME280;11554;51.106;3.684;2022-10-16T08:25:00;101376.09;;;14.23;100.0
22775;BME280;11554;51.106;3.684;2022-10-16T08:30:00;101382.3;;;14.41;100.0
22775;BME280;11554;51.106;3.684;2022-10-16T08:35:00;101389.78;;;14.59;100.0
22775;BME280;11554;51.106;3.684;2022-10-16T08:40:00;101394.32;;;14.74;100.0
22775;BME280;11554;51.106;3.684;2022-10-16T08:45:09;101393.66;;;14.92;100.0
22775;BME280;11554;51.106;3.684;2022-10-16T08:50:00;101406.16;;;15.19;100.0
22775;BME280;11554;51.106;3.684;2022-10-16T08:55:00;101408.1;;;15.35;100.0
22775;BME280;11554;51.106;3.684;2022-10-16T09:00:00;101412.81;;;15.50;100.0
22775;BME280;11554;51.106;3.684;2022-10-16T09:05:02;101413.79;;;15.77;100.0
22775;BME280;11554;51.106;3.684;2022-10-16T09:10:03;101412.40000000001;;;16.03;100.0
22775;BME280;11554;51.106;3.684;2022-10-16T09:15:02;101424.23999999999;;;16.22;100.0
22775;BME280;11554;51.106;3.684;2022-10-16T09:20:03;101417.86;;;16.34;100.0
22775;BME280;11554;51.106;3.684;2022-10-16T09:25:00;101424.49;;;16.56;100.0
22775;BME280;11554;51.106;3.684;2022-10-16T09:30:00;101434.23;;;16.83;100.0
22775;BME280;11554;51.106;3.684;2022-10-16T09:35:00;101443.67;;;16.91;100.0
22775;BME280;11554;51.106;3.684;2022-10-16T09:40:00;101441.01000000001;;;17.21;100.0
22775;BME280;11554;51.106;3.684;2022-10-16T09:45:00;101441.90999999999;;;17.49;100.0
22775;BME280;11554;51.106;3.684;2022-10-16T09:50:00;101449.23999999999;;;17.62;99.91
22775;BME280;11554;51.106;3.684;2022-10-16T09:55:00;101456.17;;;18.03;99.12
22775;BME280;11554;51.106;3.684;2022-10-16T10:00:00;101451.05;;;18.19;97.5
22775;BME280;11554;51.106;3.684;2022-10-16T10:05:00;101453.67;;;17.95;97.65
22775;BME280;11554;51.106;3.684;2022-10-16T10:10:00;101453.34;;;17.63;99.21
22775;BME280;11554;51.106;3.684;2022-10-16T10:15:03;101454.35;;;17.29;98.62
22775;BME280;11554;51.106;3.684;2022-10-16T10:20:00;101457.37000000001;;;17.01;99.76
22775;BME280;11554;51.106;3.684;2022-10-16T10:25:01;101463.78;;;17.21;100.0
22775;BME280;11554;51.106;3.684;2022-10-16T10:30:01;101459.34999999999;;;18.05;98.89
22775;BME280;11554;51.106;3.684;2022-10-16T10:35:03;101467.9;;;17.81;96.35
22775;BME280;11554;51.106;3.684;2022-10-16T10:40:01;101478.91;;;18.28;95.31
22775;BME280;11554;51.106;3.684;2022-10-16T10:50:02;101473.20999999999;;;18.40;95.84
22775;BME280;11554;51.106;3.684;2022-10-16T10:55:02;101465.12;;;18.83;93.5
22775;BME280;11554;51.106;3.684;2022-10-16T11:00:03;101465.16;;;18.97;94.77
22775;BME280;11554;51.106;3.684;2022-10-16T11:05:07;101471.77;;;19.10;92.29
22775;BME280;11554;51.106;3.684;2022-10-16T11:10:02;101462.39;;;19.53;91.04
22775;BME280;11554;51.106;3.684;2022-10-16T11:15:02;101463.7;;;20.33;91.75
22775;BME280;11554;51.106;3.684;2022-10-16T11:20:02;101466.03;;;20.59;88.4
22775;BME280;11554;51.106;3.684;2022-10-16T11:25:00;101466.86;;;20.74;83.37
22775;BME280;11554;51.106;3.684;2022-10-16T11:30:02;101477.62;;;20.99;84.02
22775;BME280;11554;51.106;3.684;2022-10-16T11:35:02;101482.61;;;21.18;83.68
22775;BME280;11554;51.106;3.684;2022-10-16T11:40:03;101475.36;;;21.47;83.31
22775;BME280;11554;51.106;3.684;2022-10-16T11:45:00;101474.37999999999;;;21.54;80.34
22775;BME280;11554;51.106;3.684;2022-10-16T11:50:01;101470.51;;;21.81;81.76
22775;BME280;11554;51.106;3.684;2022-10-16T11:55:01;101455.25;;;21.73;80.5
22775;BME280;11554;51.106;3.684;2022-10-16T12:00:01;101455.86;;;20.89;78.72
22775;BME280;11554;51.106;3.684;2022-10-16T12:05:03;101464.70000000001;;;20.10;81.65
22775;BME280;11554;51.106;3.684;2022-10-16T12:10:09;101467.47;;;19.84;80.29
22775;BME280;11554;51.106;3.684;2022-10-16T12:15:00;101462.94;;;20.18;81.6
22775;BME280;11554;51.106;3.684;2022-10-16T12:20:01;101473.47;;;19.99;82.01
22775;BME280;11554;51.106;3.684;2022-10-16T12:25:00;101477.11;;;20.20;84.58
22775;BME280;11554;51.106;3.684;2022-10-16T12:30:00;101473.61;;;21.58;83.64
22775;BME280;11554;51.106;3.684;2022-10-16T12:35:00;101477.31;;;22.18;78.61
22775;BME280;11554;51.106;3.684;2022-10-16T12:40:04;101467.64;;;21.82;75.94
22775;BME280;11554;51.106;3.684;2022-10-16T12:45:00;101463.03;;;21.54;75.05
22775;BME280;11554;51.106;3.684;2022-10-16T12:50:00;101461.58;;;21.36;76.4
22775;BME280;11554;51.106;3.684;2022-10-16T12:55:00;101471.37;;;21.41;74.86
22775;BME280;11554;51.106;3.684;2022-10-16T13:00:02;101456.66;;;21.03;73.96
22775;BME280;11554;51.106;3.684;2022-10-16T13:05:03;101461.73999999999;;;21.23;74.44
22775;BME280;11554;51.106;3.684;2022-10-16T13:10:03;101464.4;;;20.97;75.88
22775;BME280;11554;51.106;3.684;2022-10-16T13:15:07;101465.99;;;20.54;75.94
22775;BME280;11554;51.106;3.684;2022-10-16T13:20:02;101474.28;;;20.47;77.47
22775;BME280;11554;51.106;3.684;2022-10-16T13:25:02;101467.4;;;20.36;77.52
22775;BME280;11554;51.106;3.684;2022-10-16T13:30:01;101455.8;;;20.17;78.35
22775;BME280;11554;51.106;3.684;2022-10-16T13:35:00;101463.65;;;20.32;77.33
22775;BME280;11554;51.106;3.684;2022-10-16T13:40:09;101462.7;;;20.39;77.68
22775;BME280;11554;51.106;3.684;2022-10-16T13:45:00;101453.19;;;20.45;78.48
22775;BME280;11554;51.106;3.684;2022-10-16T13:50:00;101447.47;;;20.38;78.87
22775;BME280;11554;51.106;3.684;2022-10-16T13:55:00;101451.42;;;20.05;78.64
22775;BME280;11554;51.106;3.684;2022-10-16T14:00:00;101448.94;;;19.74;80.19
22775;BME280;11554;51.106;3.684;2022-10-16T14:05:00;101452.36;;;19.57;80.37
22775;BME280;11554;51.106;3.684;2022-10-16T14:10:01;101451.45;;;19.45;82.05
22775;BME280;11554;51.106;3.684;2022-10-16T14:15:00;101446.88;;;19.25;81.23
22775;BME280;11554;51.106;3.684;2022-10-16T14:20:01;101445.51;;;19.04;81.14
22775;BME280;11554;51.106;3.684;2022-10-16T14:25:00;101463.11;;;18.90;83.33
22775;BME280;11554;51.106;3.684;2022-10-16T14:30:08;101458.22;;;18.92;83.03
22775;BME280;11554;51.106;3.684;2022-10-16T14:35:00;101441.31;;;18.72;82.8
22775;BME280;11554;51.106;3.684;2022-10-16T14:40:00;101462.07;;;18.59;83.49
22775;BME280;11554;51.106;3.684;2022-10-16T14:45:00;101467.11;;;18.33;83.06
22775;BME280;11554;51.106;3.684;2022-10-16T14:50:00;101458.25;;;18.24;84.86
22775;BME280;11554;51.106;3.684;2022-10-16T14:55:00;101456.36;;;18.21;86.22
22775;BME280;11554;51.106;3.684;2022-10-16T15:00:00;101460.17;;;18.09;85.9
22775;BME280;11554;51.106;3.684;2022-10-16T15:05:04;101453.45;;;17.94;84.74
22775;BME280;11554;51.106;3.684;2022-10-16T15:10:00;101458.36;;;17.82;84.86
22775;BME280;11554;51.106;3.684;2022-10-16T15:15:00;101454.94;;;17.69;84.37
22775;BME280;11554;51.106;3.684;2022-10-16T15:20:00;101459.42;;;17.61;84.48
22775;BME280;11554;51.106;3.684;2022-10-16T15:25:00;101446.67;;;17.47;84.7
22775;BME280;11554;51.106;3.684;2022-10-16T15:30:00;101438.33;;;17.37;85.68
22775;BME280;11554;51.106;3.684;2022-10-16T15:35:00;101436.79;;;17.24;86.22
22775;BME280;11554;51.106;3.684;2022-10-16T15:40:00;101417.6;;;17.14;87.1
22775;BME280;11554;51.106;3.684;2022-10-16T15:45:00;101422.11;;;16.99;88.53
22775;BME280;11554;51.106;3.684;2022-10-16T15:50:00;101427.25;;;16.92;89.11
22775;BME280;11554;51.106;3.684;2022-10-16T15:55:00;101426.64;;;16.79;89.62
22775;BME280;11554;51.106;3.684;2022-10-16T16:00:00;101423.33;;;16.68;90.67
22775;BME280;11554;51.106;3.684;2022-10-16T16:05:00;101422.55;;;16.54;91.57
22775;BME280;11554;51.106;3.684;2022-10-16T16:10:00;101430.58;;;16.45;91.85
22775;BME280;11554;51.106;3.684;2022-10-16T16:15:00;101430.76999999999;;;16.38;92.09
22775;BME280;11554;51.106;3.684;2022-10-16T16:20:00;101432.53;;;16.30;92.33
22775;BME280;11554;51.106;3.684;2022-10-16T16:25:00;101440.44;;;16.23;93.27
22775;BME280;11554;51.106;3.684;2022-10-16T16:30:00;101451.47;;;16.14;93.28
22775;BME280;11554;51.106;3.684;2022-10-16T16:35:00;101455.48999999999;;;16.03;93.62
22775;BME280;11554;51.106;3.684;2022-10-16T16:40:00;101448.15999999999;;;15.95;94.27
22775;BME280;11554;51.106;3.684;2022-10-16T16:45:00;101457.67;;;15.85;94.64
22775;BME280;11554;51.106;3.684;2022-10-16T16:50:00;101458.62;;;15.75;95.28
22775;BME280;11554;51.106;3.684;2022-10-16T16:55:00;101471.92;;;15.67;96.01
22775;BME280;11554;51.106;3.684;2022-10-16T17:00:00;101483.61;;;15.62;96.77
22775;BME280;11554;51.106;3.684;2022-10-16T17:05:00;101485.46;;;15.57;97.58
22775;BME280;11554;51.106;3.684;2022-10-16T17:10:00;101489.01;;;15.50;97.97
22775;BME280;11554;51.106;3.684;2022-10-16T17:15:00;101501.76;;;15.45;98.21
22775;BME280;11554;51.106;3.684;2022-10-16T17:20:00;101505.08;;;15.38;99.43
22775;BME280;11554;51.106;3.684;2022-10-16T17:25:00;101505.55;;;15.37;100.0
22775;BME280;11554;51.106;3.684;2022-10-16T17:30:00;101503.56;;;15.34;100.0
22775;BME280;11554;51.106;3.684;2022-10-16T17:35:00;101491.71;;;15.35;100.0
22775;BME280;11554;51.106;3.684;2022-10-16T17:40:00;101474.92;;;15.33;100.0
22775;BME280;11554;51.106;3.684;2022-10-16T17:45:00;101491.38;;;15.29;100.0
22775;BME280;11554;51.106;3.684;2022-10-16T17:50:00;101498.15999999999;;;15.22;100.0
22775;BME280;11554;51.106;3.684;2022-10-16T17:55:00;101506.86;;;15.16;100.0
22775;BME280;11554;51.106;3.684;2022-10-16T18:00:00;101519.14;;;15.09;100.0
22775;BME280;11554;51.106;3.684;2022-10-16T18:05:00;101522.36;;;15.15;100.0
22775;BME280;11554;51.106;3.684;2022-10-16T18:10:00;101512.8;;;15.20;100.0
22775;BME280;11554;51.106;3.684;2022-10-16T18:15:00;101526.31;;;15.21;100.0
22775;BME280;11554;51.106;3.684;2022-10-16T18:20:00;101540.84;;;15.16;100.0
22775;BME280;11554;51.106;3.684;2022-10-16T18:25:00;101545.37;;;15.15;100.0
22775;BME280;11554;51.106;3.684;2022-10-16T18:30:00;101539.69;;;15.19;100.0
22775;BME280;11554;51.106;3.684;2022-10-16T18:35:00;101519.81;;;15.21;100.0
22775;BME280;11554;51.106;3.684;2022-10-16T18:40:00;101515.34;;;15.19;100.0
22775;BME280;11554;51.106;3.684;2022-10-16T18:45:00;101517.72;;;15.16;100.0
22775;BME280;11554;51.106;3.684;2022-10-16T18:50:00;101512.78;;;15.11;100.0
22775;BME280;11554;51.106;3.684;2022-10-16T18:55:00;101508.48;;;15.07;100.0
22775;BME280;11554;51.106;3.684;2022-10-16T19:00:00;101501.28;;;15.04;100.0
22775;BME280;11554;51.106;3.684;2022-10-16T19:05:00;101503.79000000001;;;15.02;100.0
22775;BME280;11554;51.106;3.684;2022-10-16T19:10:00;101490.32999999999;;;14.99;100.0
22775;BME280;11554;51.106;3.684;2022-10-16T19:15:00;101492.40999999999;;;14.99;100.0
22775;BME280;11554;51.106;3.684;2022-10-16T19:20:00;101483.59;;;14.93;100.0
22775;BME280;11554;51.106;3.684;2022-10-16T19:25:00;101482.2;;;14.92;100.0
22775;BME280;11554;51.106;3.684;2022-10-16T19:30:00;101495.62;;;14.99;100.0
22775;BME280;11554;51.106;3.684;2022-10-16T19:35:00;101495.76;;;14.95;100.0
22775;BME280;11554;51.106;3.684;2022-10-16T19:40:00;101492.28;;;14.95;100.0
22775;BME280;11554;51.106;3.684;2022-10-16T19:45:00;101486.03;;;14.96;100.0
22775;BME280;11554;51.106;3.684;2022-10-16T19:50:00;101484.82;;;14.94;100.0
22775;BME280;11554;51.106;3.684;2022-10-16T19:55:00;101481.91;;;14.92;100.0
22775;BME280;11554;51.106;3.684;2022-10-16T20:00:00;101479.16;;;14.95;100.0
22775;BME280;11554;51.106;3.684;2022-10-16T20:05:00;101463.26000000001;;;14.93;100.0
22775;BME280;11554;51.106;3.684;2022-10-16T20:10:00;101462.01999999999;;;14.91;100.0
22775;BME280;11554;51.106;3.684;2022-10-16T20:15:00;101444.11;;;14.90;100.0
22775;BME280;11554;51.106;3.684;2022-10-16T20:20:00;101442.61;;;14.80;100.0
22775;BME280;11554;51.106;3.684;2022-10-16T20:25:00;101447.49;;;14.67;100.0
22775;BME280;11554;51.106;3.684;2022-10-16T20:30:00;101449.84;;;14.59;100.0
22775;BME280;11554;51.106;3.684;2022-10-16T20:35:00;101442.0;;;14.61;100.0
22775;BME280;11554;51.106;3.684;2022-10-16T20:40:00;101434.68000000001;;;14.54;100.0
22775;BME280;11554;51.106;3.684;2022-10-16T20:45:00;101435.16;;;14.49;100.0
22775;BME280;11554;51.106;3.684;2022-10-16T20:50:00;101438.68;;;14.36;100.0
22775;BME280;11554;51.106;3.684;2022-10-16T20:55:00;101435.51;;;14.28;100.0
22775;BME280;11554;51.106;3.684;2022-10-16T21:00:00;101439.29000000001;;;14.21;100.0
22775;BME280;11554;51.106;3.684;2022-10-16T21:05:00;101445.67;;;14.17;100.0
22775;BME280;11554;51.106;3.684;2022-10-16T21:10:00;101452.37;;;14.14;100.0
22775;BME280;11554;51.106;3.684;2022-10-16T21:15:00;101454.1;;;14.02;100.0
22775;BME280;11554;51.106;3.684;2022-10-16T21:20:00;101456.08;;;14.03;100.0
22775;BME280;11554;51.106;3.684;2022-10-16T21:25:00;101453.56;;;14.01;100.0
22775;BME280;11554;51.106;3.684;2022-10-16T21:30:00;101448.51;;;13.96;100.0
22775;BME280;11554;51.106;3.684;2022-10-16T21:35:00;101450.83;;;13.93;100.0
22775;BME280;11554;51.106;3.684;2022-10-16T21:40:00;101459.36;;;13.96;100.0
22775;BME280;11554;51.106;3.684;2022-10-16T21:45:00;101455.9;;;13.98;100.0
22775;BME280;11554;51.106;3.684;2022-10-16T21:50:00;101450.73;;;13.97;100.0
22775;BME280;11554;51.106;3.684;2022-10-16T21:55:00;101448.15999999999;;;14.00;100.0
22775;BME280;11554;51.106;3.684;2022-10-16T22:00:00;101448.28;;;13.94;100.0
22775;BME280;11554;51.106;3.684;2022-10-16T22:05:00;101440.06000000001;;;13.95;100.0
22775;BME280;11554;51.106;3.684;2022-10-16T22:10:00;101438.04000000001;;;13.94;100.0
22775;BME280;11554;51.106;3.684;2022-10-16T22:15:00;101439.70000000001;;;13.99;100.0
22775;BME280;11554;51.106;3.684;2022-10-16T22:20:00;101434.47;;;14.05;100.0
22775;BME280;11554;51.106;3.684;2022-10-16T22:25:00;101430.3;;;13.98;100.0
22775;BME280;11554;51.106;3.684;2022-10-16T22:30:00;101428.37;;;13.99;100.0
22775;BME280;11554;51.106;3.684;2022-10-16T22:35:00;101428.27;;;13.93;100.0
22775;BME280;11554;51.106;3.684;2022-10-16T22:40:00;101422.96;;;13.93;100.0
22775;BME280;11554;51.106;3.684;2022-10-16T22:45:00;101418.86;;;13.90;100.0
22775;BME280;11554;51.106;3.684;2022-10-16T22:50:00;101412.17;;;13.87;100.0
22775;BME280;11554;51.106;3.684;2022-10-16T22:55:00;101415.48;;;13.86;100.0
22775;BME280;11554;51.106;3.684;2022-10-16T23:00:00;101414.64;;;13.81;100.0
22775;BME280;11554;51.106;3.684;2022-10-16T23:05:00;101410.37;;;13.79;100.0
22775;BME280;11554;51.106;3.684;2022-10-16T23:10:00;101410.38;;;13.87;100.0
22775;BME280;11554;51.106;3.684;2022-10-16T23:15:00;101409.61;;;13.87;100.0
22775;BME280;11554;51.106;3.684;2022-10-16T23:20:00;101403.61;;;13.95;100.0
22775;BME280;11554;51.106;3.684;2022-10-16T23:25:00;101402.23;;;13.93;100.0
22775;BME280;11554;51.106;3.684;2022-10-16T23:30:00;101395.82;;;13.89;100.0
22775;BME280;11554;51.106;3.684;2022-10-16T23:35:00;101389.9;;;13.89;100.0
22775;BME280;11554;51.106;3.684;2022-10-16T23:40:00;101383.03;;;13.88;100.0
22775;BME280;11554;51.106;3.684;2022-10-16T23:45:00;101374.63;;;13.82;100.0
22775;BME280;11554;51.106;3.684;2022-10-16T23:50:00;101372.43999999999;;;13.87;100.0
22775;BME280;11554;51.106;3.684;2022-10-16T23:55:00;101373.97;;;13.88;100.0
